Weather at Nzérékoré Airport

Public forecast

Using degrees Celsius for public forecast. Weather courtesy of forecast.io.

Current aviation weather report (METAR) for Nzérékoré Airport

Report is more than 6 hours old.

Retrieved 2021/06/23 09:00 UTC (1 month ago):

GUNZ 230900Z VRB02KT 9999 FEW013 23/21 Q//// NOSIG

Closest aviation forecast (TAF) to Nzérékoré Airport

Forecast is more than 12 hours old.

Closest forecast is Roberts International Airport, 136.8 nm (253.3 km) SW. Retrieved 2021/07/25 18:51 UTC (3 days ago):

TAF TAF GLRB 251700Z 2518/2618 21007KT 9999 BKN016 TEMPO 2519/2523 07005KT 7000 -RA BKN011 FEW022CB BECMG 2600/2602 VRB02KT 9000 BKN012 FEW023CB